createdAt,value
2017-11-24T00:02:09.450Z,9.70
2017-11-24T00:04:36.222Z,8.73
2017-11-24T00:07:02.992Z,8.60
2017-11-24T00:09:29.732Z,8.70
2017-11-24T00:11:56.502Z,9.37
2017-11-24T00:14:23.275Z,9.73
2017-11-24T00:16:50.030Z,9.93
2017-11-24T00:19:16.794Z,9.23
2017-11-24T00:21:43.526Z,8.20
2017-11-24T00:24:10.249Z,9.47
2017-11-24T00:26:37.012Z,9.87
2017-11-24T00:29:03.752Z,7.97
2017-11-24T00:31:30.520Z,9.87
2017-11-24T00:33:57.304Z,9.33
2017-11-24T00:36:24.064Z,10.00
2017-11-24T00:38:50.791Z,10.47
2017-11-24T00:41:17.513Z,8.73
2017-11-24T00:43:44.257Z,10.50
2017-11-24T00:46:10.982Z,9.57
2017-11-24T00:48:37.771Z,9.57
2017-11-24T00:51:04.522Z,10.37
2017-11-24T00:53:31.238Z,9.97
2017-11-24T00:55:57.964Z,9.37
2017-11-24T00:58:24.699Z,10.00
2017-11-24T01:00:51.414Z,9.93
2017-11-24T01:03:18.136Z,8.90
2017-11-24T01:05:44.891Z,10.10
2017-11-24T01:08:11.628Z,10.30
2017-11-24T01:10:38.356Z,9.80
2017-11-24T01:13:05.084Z,10.10
2017-11-24T01:15:31.808Z,11.30
2017-11-24T01:17:58.535Z,9.83
2017-11-24T01:20:25.392Z,9.87
2017-11-24T01:22:52.109Z,9.80
2017-11-24T01:25:18.932Z,10.80
2017-11-24T01:27:45.668Z,10.33
2017-11-24T01:30:12.408Z,9.87
2017-11-24T01:32:39.168Z,10.30
2017-11-24T01:35:05.906Z,9.40
2017-11-24T01:37:32.621Z,9.63
2017-11-24T01:39:59.373Z,10.63
2017-11-24T01:42:26.115Z,8.97
2017-11-24T01:44:52.876Z,10.80
2017-11-24T01:47:19.610Z,9.93
2017-11-24T01:49:46.365Z,10.07
2017-11-24T01:52:13.088Z,10.53
2017-11-24T01:54:39.833Z,9.20
2017-11-24T01:57:06.606Z,8.70
2017-11-24T01:59:33.340Z,9.47
2017-11-24T02:02:00.091Z,10.97
2017-11-24T02:04:26.818Z,9.43
2017-11-24T02:06:53.570Z,9.17
2017-11-24T02:09:20.311Z,9.60
2017-11-24T02:11:47.082Z,8.60
2017-11-24T02:14:13.845Z,9.57
2017-11-24T02:16:40.597Z,9.27
2017-11-24T02:19:07.347Z,9.23
2017-11-24T02:21:34.115Z,10.23
2017-11-24T02:24:00.896Z,10.93
2017-11-24T02:26:27.610Z,9.90
2017-11-24T02:28:54.348Z,8.93
2017-11-24T02:31:21.102Z,10.40
2017-11-24T02:33:47.885Z,8.80
2017-11-24T02:36:14.635Z,9.30
2017-11-24T02:38:41.399Z,9.63
2017-11-24T02:41:08.155Z,8.63
2017-11-24T02:43:34.907Z,10.93
2017-11-24T02:46:01.707Z,10.40
2017-11-24T02:48:28.491Z,10.40
2017-11-24T02:50:55.237Z,10.80
2017-11-24T02:53:22.010Z,10.43
2017-11-24T02:55:48.803Z,10.00
2017-11-24T02:58:15.631Z,10.30
2017-11-24T03:00:42.392Z,10.07
2017-11-24T03:03:09.148Z,8.73
2017-11-24T03:05:35.873Z,9.60
2017-11-24T03:08:02.620Z,9.75
2017-11-24T03:10:29.353Z,9.30
2017-11-24T03:12:56.144Z,9.97
2017-11-24T03:15:22.935Z,9.30
2017-11-24T03:17:49.657Z,8.73
2017-11-24T03:20:16.409Z,9.67
2017-11-24T03:22:43.138Z,10.17
2017-11-24T03:25:09.887Z,10.20
2017-11-24T03:27:36.606Z,11.00
2017-11-24T03:30:03.383Z,10.53
2017-11-24T03:32:30.105Z,9.07
2017-11-24T03:34:56.824Z,10.30
2017-11-24T03:37:23.585Z,8.40
2017-11-24T03:39:50.343Z,9.70
2017-11-24T03:42:17.118Z,9.43
2017-11-24T03:44:43.856Z,8.93
2017-11-24T03:47:10.665Z,7.70
2017-11-24T03:49:37.421Z,9.77
2017-11-24T03:52:04.148Z,8.97
2017-11-24T03:54:30.891Z,10.77
2017-11-24T03:56:57.635Z,9.75
2017-11-24T03:59:24.385Z,8.73
2017-11-24T04:01:51.206Z,11.13
2017-11-24T04:04:17.956Z,10.23
2017-11-24T04:06:44.697Z,9.57
2017-11-24T04:09:11.460Z,9.53
2017-11-24T04:11:38.240Z,9.80
2017-11-24T04:14:05.000Z,10.23
2017-11-24T04:16:31.773Z,10.15
2017-11-24T04:18:58.553Z,9.80
2017-11-24T04:21:25.294Z,10.03
2017-11-24T04:23:52.070Z,10.30
2017-11-24T04:26:18.810Z,10.00
2017-11-24T04:28:45.546Z,9.35
2017-11-24T04:31:12.323Z,11.12
2017-11-24T04:33:39.067Z,11.20
2017-11-24T04:36:05.802Z,10.93
2017-11-24T04:38:32.542Z,11.75
2017-11-24T04:40:59.301Z,10.00
2017-11-24T04:43:26.058Z,10.70
2017-11-24T04:45:52.835Z,11.68
2017-11-24T04:48:19.604Z,11.48
2017-11-24T04:50:46.431Z,10.38
2017-11-24T04:53:13.180Z,10.07
2017-11-24T04:55:39.950Z,10.70
2017-11-24T04:58:06.701Z,10.88
2017-11-24T05:00:33.487Z,11.63
2017-11-24T05:03:00.227Z,10.90
2017-11-24T05:05:26.966Z,11.98
2017-11-24T05:07:53.700Z,10.73
2017-11-24T05:10:20.447Z,10.67
2017-11-24T05:12:47.190Z,11.30
2017-11-24T05:15:13.976Z,11.52
2017-11-24T05:17:40.743Z,10.85
2017-11-24T05:20:07.488Z,11.05
2017-11-24T05:22:34.236Z,12.13
2017-11-24T05:25:00.975Z,9.88
2017-11-24T05:27:27.720Z,10.82
2017-11-24T05:29:54.488Z,11.88
2017-11-24T05:32:21.252Z,10.98
2017-11-24T05:34:47.976Z,10.25
2017-11-24T05:37:14.757Z,12.15
2017-11-24T05:39:41.669Z,11.00
2017-11-24T05:42:08.632Z,10.77
2017-11-24T05:44:35.358Z,10.30
2017-11-24T05:47:02.088Z,10.63
2017-11-24T05:49:28.850Z,11.60
2017-11-24T05:51:55.592Z,10.45
2017-11-24T05:54:22.326Z,9.68
2017-11-24T05:56:49.066Z,11.50
2017-11-24T05:59:15.806Z,11.50
2017-11-24T06:01:42.555Z,10.90
2017-11-24T06:04:09.282Z,12.05
2017-11-24T06:06:36.052Z,12.13
2017-11-24T06:09:02.852Z,11.05
2017-11-24T06:11:29.613Z,12.07
2017-11-24T06:13:56.394Z,11.95
2017-11-24T06:16:23.141Z,11.30
2017-11-24T06:18:49.897Z,11.73
2017-11-24T06:21:16.654Z,11.20
2017-11-24T06:23:43.393Z,11.50
2017-11-24T06:26:10.196Z,9.88
2017-11-24T06:28:36.972Z,10.68
2017-11-24T06:31:03.711Z,10.38
2017-11-24T06:33:30.456Z,10.97
2017-11-24T06:35:57.202Z,10.88
2017-11-24T06:38:23.963Z,11.32
2017-11-24T06:40:50.770Z,12.18
2017-11-24T06:43:17.548Z,11.88
2017-11-24T06:45:44.288Z,11.90
2017-11-24T06:48:11.014Z,12.02
2017-11-24T06:50:37.739Z,11.75
2017-11-24T06:53:04.479Z,12.07
2017-11-24T06:55:31.368Z,12.27
2017-11-24T06:57:58.096Z,11.93
2017-11-24T07:00:24.832Z,11.40
2017-11-24T07:02:51.557Z,12.90
2017-11-24T07:05:18.296Z,14.85
2017-11-24T07:07:45.048Z,15.27
2017-11-24T07:10:11.798Z,15.20
2017-11-24T07:12:38.668Z,14.60
2017-11-24T07:15:05.524Z,15.83
2017-11-24T07:17:32.267Z,17.20
2017-11-24T07:19:59.031Z,17.97
2017-11-24T07:22:25.795Z,21.20
2017-11-24T07:24:52.565Z,23.48
2017-11-24T07:27:19.282Z,12.07
2017-11-24T07:29:46.007Z,12.10
2017-11-24T07:32:12.754Z,10.93
2017-11-24T07:34:39.500Z,11.63
2017-11-24T07:37:06.239Z,10.57
2017-11-24T07:39:32.973Z,10.67
2017-11-24T07:41:59.711Z,12.07
2017-11-24T07:44:26.439Z,12.43
2017-11-24T07:46:53.194Z,12.10
2017-11-24T07:49:19.914Z,12.60
2017-11-24T07:51:46.642Z,13.10
2017-11-24T07:54:13.373Z,16.73
2017-11-24T07:56:40.086Z,19.10
2017-11-24T07:59:06.811Z,16.53
2017-11-24T08:01:33.521Z,16.20
2017-11-24T08:04:00.266Z,14.57
2017-11-24T08:06:26.989Z,17.33
2017-11-24T08:08:53.854Z,17.63
2017-11-24T08:11:20.591Z,16.73
2017-11-24T08:13:47.319Z,19.63
2017-11-24T08:16:14.059Z,16.63
2017-11-24T08:18:40.814Z,15.50
2017-11-24T08:21:07.656Z,15.87
2017-11-24T08:23:34.411Z,18.83
2017-11-24T08:26:01.185Z,17.00
2017-11-24T08:28:27.924Z,17.63
2017-11-24T08:30:54.700Z,18.70
2017-11-24T08:33:21.439Z,17.10
2017-11-24T08:35:48.152Z,18.50
2017-11-24T08:38:14.855Z,19.07
2017-11-24T08:40:41.596Z,18.40
2017-11-24T08:43:08.304Z,18.60
2017-11-24T08:45:35.016Z,18.80
2017-11-24T08:48:07.515Z,20.00
2017-11-24T08:50:34.242Z,19.10
2017-11-24T08:53:00.966Z,20.00
2017-11-24T08:55:27.680Z,20.40
2017-11-24T08:57:54.394Z,20.60
2017-11-24T09:00:21.113Z,19.57
2017-11-24T09:02:47.979Z,20.03
2017-11-24T09:05:14.719Z,20.73
2017-11-24T09:07:41.441Z,18.90
2017-11-24T09:10:08.159Z,17.83
2017-11-24T09:12:34.875Z,19.60
2017-11-24T09:15:01.613Z,18.70
2017-11-24T09:17:28.346Z,19.93
2017-11-24T09:19:55.076Z,17.80
2017-11-24T09:22:21.796Z,17.67
2017-11-24T09:24:48.559Z,17.43
2017-11-24T09:27:15.283Z,18.13
2017-11-24T09:29:42.020Z,17.93
2017-11-24T09:32:08.751Z,13.83
2017-11-24T09:34:35.481Z,14.50
2017-11-24T09:37:02.195Z,13.73
2017-11-24T09:39:28.990Z,13.00
2017-11-24T09:41:55.732Z,14.67
2017-11-24T09:44:22.443Z,15.87
2017-11-24T09:46:49.171Z,18.40
2017-11-24T09:49:15.893Z,14.23
2017-11-24T09:51:42.609Z,15.73
2017-11-24T09:54:09.430Z,13.83
2017-11-24T09:56:36.176Z,13.90
2017-11-24T09:59:02.927Z,14.87
2017-11-24T10:01:29.683Z,14.90
2017-11-24T10:03:56.412Z,12.80
2017-11-24T10:06:23.130Z,13.97
2017-11-24T10:08:49.867Z,13.70
2017-11-24T10:11:16.592Z,13.30
2017-11-24T10:13:43.353Z,12.43
2017-11-24T10:16:10.100Z,11.90
2017-11-24T10:18:36.839Z,12.83
2017-11-24T10:21:09.468Z,13.47
2017-11-24T10:23:36.195Z,13.63
2017-11-24T10:26:02.928Z,11.30
2017-11-24T10:28:29.699Z,12.13
2017-11-24T10:30:56.425Z,11.33
2017-11-24T10:33:23.134Z,12.40
2017-11-24T10:35:49.860Z,12.57
2017-11-24T10:38:16.599Z,10.00
2017-11-24T10:40:43.394Z,10.23
2017-11-24T10:43:10.160Z,12.03
2017-11-24T10:45:36.957Z,11.83
2017-11-24T10:48:03.696Z,12.10
2017-11-24T10:50:30.454Z,11.80
2017-11-24T10:52:57.182Z,12.80
2017-11-24T10:55:23.930Z,12.13
2017-11-24T10:57:50.675Z,10.60
2017-11-24T11:00:17.447Z,12.07
2017-11-24T11:02:44.198Z,11.53
2017-11-24T11:05:10.919Z,11.90
2017-11-24T11:07:37.621Z,11.73
2017-11-24T11:10:04.371Z,11.27
2017-11-24T11:12:31.082Z,10.93
2017-11-24T11:14:57.810Z,11.93
2017-11-24T11:17:24.539Z,12.10
2017-11-24T11:19:51.269Z,11.80
2017-11-24T11:22:17.977Z,12.30
2017-11-24T11:24:44.723Z,11.30
2017-11-24T11:27:11.448Z,12.07
2017-11-24T11:29:38.211Z,10.20
2017-11-24T11:32:04.935Z,10.53
2017-11-24T11:34:31.699Z,11.10
2017-11-24T11:36:58.483Z,11.20
2017-11-24T11:39:25.237Z,10.97
2017-11-24T11:41:51.981Z,11.30
2017-11-24T11:44:18.712Z,12.50
2017-11-24T11:46:45.479Z,12.00
2017-11-24T11:49:12.225Z,11.70
2017-11-24T11:51:39.009Z,11.10
2017-11-24T11:54:05.766Z,11.30
2017-11-24T11:56:32.510Z,11.63
2017-11-24T11:58:59.270Z,10.67
2017-11-24T12:01:26.083Z,10.70
2017-11-24T12:03:52.812Z,10.67
2017-11-24T12:06:19.560Z,11.07
2017-11-24T12:08:46.340Z,9.90
2017-11-24T12:11:13.085Z,10.50
2017-11-24T12:13:39.841Z,10.90
2017-11-24T12:16:06.624Z,10.30
2017-11-24T12:18:33.354Z,10.53
2017-11-24T12:21:00.063Z,9.03
2017-11-24T12:23:26.799Z,9.03
2017-11-24T12:25:53.524Z,9.20
2017-11-24T12:28:20.254Z,9.27
2017-11-24T12:30:47.016Z,10.60
2017-11-24T12:33:13.742Z,9.53
2017-11-24T12:35:40.484Z,9.33
2017-11-24T12:38:07.205Z,10.00
2017-11-24T12:40:33.951Z,10.17
2017-11-24T12:43:00.695Z,9.07
2017-11-24T12:45:27.446Z,9.03
2017-11-24T12:47:54.176Z,8.83
2017-11-24T12:50:20.980Z,8.30
2017-11-24T12:52:47.725Z,9.03
2017-11-24T12:55:14.461Z,8.30
2017-11-24T12:57:41.176Z,7.23
2017-11-24T13:00:07.905Z,7.63
2017-11-24T13:02:34.674Z,7.73
2017-11-24T13:05:01.387Z,7.43
2017-11-24T13:07:28.130Z,6.87
2017-11-24T13:09:54.910Z,7.60
2017-11-24T13:12:21.663Z,8.90
2017-11-24T13:14:48.405Z,7.80
2017-11-24T13:17:15.120Z,8.47
2017-11-24T13:19:41.832Z,7.80
2017-11-24T13:22:08.568Z,7.37
2017-11-24T13:24:35.291Z,7.90
2017-11-24T13:27:02.014Z,6.97
2017-11-24T13:29:28.748Z,7.10
2017-11-24T13:31:55.460Z,7.10
2017-11-24T13:34:22.186Z,6.83
2017-11-24T13:36:48.928Z,7.27
2017-11-24T13:39:15.643Z,6.70
2017-11-24T13:41:42.349Z,6.00
2017-11-24T13:44:09.107Z,6.40
2017-11-24T13:46:35.844Z,7.00
2017-11-24T13:49:02.557Z,6.43
2017-11-24T13:51:29.298Z,6.87
2017-11-24T13:53:56.103Z,6.17
2017-11-24T13:56:22.832Z,7.07
2017-11-24T13:58:49.535Z,6.20
2017-11-24T14:01:16.257Z,6.30
2017-11-24T14:03:42.986Z,6.73
2017-11-24T14:06:09.699Z,6.87
2017-11-24T14:08:36.426Z,6.40
2017-11-24T14:11:03.168Z,7.20
2017-11-24T14:13:29.890Z,7.80
2017-11-24T14:15:56.623Z,5.90
2017-11-24T14:18:23.363Z,6.77
2017-11-24T14:20:50.107Z,6.07
2017-11-24T14:23:16.848Z,6.33
2017-11-24T14:25:43.570Z,6.27
2017-11-24T14:28:10.303Z,6.33
2017-11-24T14:30:37.021Z,6.63
2017-11-24T14:33:03.745Z,6.40
2017-11-24T14:35:30.457Z,6.90
2017-11-24T14:37:57.170Z,7.07
2017-11-24T14:40:23.896Z,7.63
2017-11-24T14:42:50.617Z,7.90
2017-11-24T14:45:17.337Z,6.53
2017-11-24T14:47:44.053Z,7.50
2017-11-24T14:50:10.899Z,7.57
2017-11-24T14:52:37.621Z,7.10
2017-11-24T14:55:04.344Z,7.10
2017-11-24T14:57:31.057Z,7.43
2017-11-24T14:59:57.844Z,8.30
2017-11-24T15:02:24.559Z,9.30
2017-11-24T15:04:51.299Z,9.67
2017-11-24T15:07:18.036Z,9.73
2017-11-24T15:09:44.766Z,10.40
2017-11-24T15:12:11.508Z,9.47
2017-11-24T15:14:38.227Z,10.53
2017-11-24T15:17:04.968Z,10.30
2017-11-24T15:19:31.684Z,10.03
2017-11-24T15:21:58.409Z,10.30
2017-11-24T15:24:25.167Z,9.83
2017-11-24T15:26:51.906Z,9.73
2017-11-24T15:29:18.634Z,9.80
2017-11-24T15:31:45.369Z,10.60
2017-11-24T15:34:12.124Z,9.90
2017-11-24T15:36:38.845Z,11.50
2017-11-24T15:39:05.581Z,12.50
2017-11-24T15:41:32.326Z,20.10
2017-11-24T15:43:59.067Z,23.60
2017-11-24T15:46:25.806Z,28.05
2017-11-24T15:48:52.540Z,26.03
2017-11-24T15:51:19.273Z,24.47
2017-11-24T15:53:46.051Z,21.40
2017-11-24T15:56:12.847Z,18.43
2017-11-24T15:58:39.569Z,18.70
2017-11-24T16:01:06.288Z,18.80
2017-11-24T16:03:33.014Z,18.60
2017-11-24T16:05:59.732Z,17.47
2017-11-24T16:08:26.512Z,16.90
2017-11-24T16:10:53.245Z,15.07
2017-11-24T16:13:19.960Z,12.77
2017-11-24T16:15:46.689Z,15.43
2017-11-24T16:18:13.427Z,12.97
2017-11-24T16:20:40.337Z,13.83
2017-11-24T16:23:07.107Z,12.13
2017-11-24T16:25:33.844Z,13.03
2017-11-24T16:28:00.583Z,13.43
2017-11-24T16:30:27.341Z,13.00
2017-11-24T16:32:54.096Z,12.10
2017-11-24T16:35:20.827Z,13.47
2017-11-24T16:37:47.561Z,14.07
2017-11-24T16:40:14.306Z,13.93
2017-11-24T16:42:41.046Z,14.03
2017-11-24T16:45:07.844Z,13.13
2017-11-24T16:47:34.564Z,13.53
2017-11-24T16:50:01.338Z,12.80
2017-11-24T16:52:28.097Z,12.70
2017-11-24T16:54:54.836Z,12.57
2017-11-24T16:57:21.575Z,13.20
2017-11-24T16:59:48.320Z,14.00
2017-11-24T17:02:15.512Z,12.13
2017-11-24T17:04:42.240Z,13.20
2017-11-24T17:07:08.956Z,12.93
2017-11-24T17:09:35.681Z,13.73
2017-11-24T17:12:02.412Z,13.33
2017-11-24T17:14:29.166Z,15.30
2017-11-24T17:16:55.898Z,12.50
2017-11-24T17:19:22.644Z,14.07
2017-11-24T17:21:49.402Z,14.27
2017-11-24T17:24:16.124Z,14.40
2017-11-24T17:26:42.873Z,14.07
2017-11-24T17:29:09.634Z,14.43
2017-11-24T17:31:36.408Z,14.30
2017-11-24T17:34:03.139Z,16.00
2017-11-24T17:36:29.895Z,15.50
2017-11-24T17:38:56.637Z,15.87
2017-11-24T17:41:23.385Z,15.47
2017-11-24T17:43:50.136Z,13.40
2017-11-24T17:46:16.883Z,14.57
2017-11-24T17:48:43.645Z,14.60
2017-11-24T17:51:10.363Z,17.13
2017-11-24T17:53:37.090Z,15.73
2017-11-24T17:56:03.834Z,17.13
2017-11-24T17:58:30.568Z,14.40
2017-11-24T18:00:57.328Z,15.73
2017-11-24T18:03:24.051Z,15.90
2017-11-24T18:05:50.794Z,14.53
2017-11-24T18:08:17.538Z,15.23
2017-11-24T18:10:44.280Z,15.70
2017-11-24T18:13:10.995Z,16.80
2017-11-24T18:15:37.740Z,14.97
2017-11-24T18:18:04.466Z,15.03
2017-11-24T18:20:31.196Z,14.53
2017-11-24T18:22:57.907Z,13.97
2017-11-24T18:25:24.639Z,16.67
2017-11-24T18:27:51.396Z,13.53
2017-11-24T18:30:18.180Z,14.90
2017-11-24T18:32:44.935Z,14.83
2017-11-24T18:35:11.750Z,14.77
2017-11-24T18:37:38.487Z,15.50
2017-11-24T18:40:05.255Z,14.90
2017-11-24T18:42:32.053Z,13.43
2017-11-24T18:44:58.783Z,12.90
2017-11-24T18:47:25.657Z,13.93
2017-11-24T18:49:52.389Z,12.53
2017-11-24T18:52:19.110Z,13.87
2017-11-24T18:54:45.825Z,12.80
2017-11-24T18:57:12.604Z,12.40
2017-11-24T18:59:39.335Z,13.00
2017-11-24T19:02:06.081Z,12.07
2017-11-24T19:04:32.816Z,13.63
2017-11-24T19:06:59.527Z,13.70
2017-11-24T19:09:26.245Z,12.90
2017-11-24T19:11:53.006Z,13.97
2017-11-24T19:14:19.724Z,15.10
2017-11-24T19:16:46.451Z,13.20
2017-11-24T19:19:13.200Z,14.03
2017-11-24T19:21:39.950Z,13.50
2017-11-24T19:24:06.799Z,15.10
2017-11-24T19:26:34.032Z,12.73
2017-11-24T19:29:01.591Z,14.47
2017-11-24T19:31:28.380Z,16.40
2017-11-24T19:33:55.971Z,18.67
2017-11-24T19:36:22.743Z,16.67
2017-11-24T19:38:49.514Z,16.40
2017-11-24T19:41:16.265Z,15.50
2017-11-24T19:43:42.996Z,12.90
2017-11-24T19:46:09.708Z,13.50
2017-11-24T19:48:36.465Z,13.60
2017-11-24T19:51:03.287Z,15.40
2017-11-24T19:53:30.041Z,16.63
2017-11-24T19:55:56.784Z,15.10
2017-11-24T19:58:23.510Z,14.10
2017-11-24T20:00:50.305Z,15.73
2017-11-24T20:03:17.097Z,15.57
2017-11-24T20:05:43.861Z,17.50
2017-11-24T20:08:10.615Z,16.57
2017-11-24T20:10:37.384Z,16.80
2017-11-24T20:13:04.179Z,15.47
2017-11-24T20:15:30.915Z,15.07
2017-11-24T20:17:57.651Z,16.73
2017-11-24T20:20:24.368Z,15.87
2017-11-24T20:22:51.108Z,14.67
2017-11-24T20:25:18.056Z,14.63
2017-11-24T20:27:45.068Z,14.70
2017-11-24T20:30:12.527Z,14.73
2017-11-24T20:32:39.379Z,14.63
2017-11-24T20:35:06.112Z,14.80
2017-11-24T20:37:32.826Z,15.87
2017-11-24T20:39:59.556Z,15.97
2017-11-24T20:42:26.296Z,17.97
2017-11-24T20:44:53.023Z,18.90
2017-11-24T20:47:19.755Z,19.80
2017-11-24T20:49:46.492Z,19.80
2017-11-24T20:52:13.225Z,18.97
2017-11-24T20:54:39.967Z,17.70
2017-11-24T20:57:06.710Z,16.50
2017-11-24T20:59:33.430Z,16.50
2017-11-24T21:02:00.165Z,18.00
2017-11-24T21:04:26.904Z,18.80
2017-11-24T21:06:53.673Z,17.33
2017-11-24T21:09:20.446Z,17.67
2017-11-24T21:11:47.206Z,17.73
2017-11-24T21:14:13.927Z,18.80
2017-11-24T21:16:40.669Z,18.50
2017-11-24T21:19:07.449Z,21.50
2017-11-24T21:21:35.163Z,21.20
2017-11-24T21:24:01.908Z,22.13
2017-11-24T21:26:28.630Z,20.83
2017-11-24T21:28:55.401Z,21.10
2017-11-24T21:31:22.149Z,20.40
2017-11-24T21:33:48.880Z,20.40
2017-11-24T21:36:15.602Z,19.83
2017-11-24T21:38:42.364Z,19.90
2017-11-24T21:41:09.105Z,20.60
2017-11-24T21:43:35.836Z,18.83
2017-11-24T21:46:02.567Z,19.53
2017-11-24T21:48:29.319Z,17.67
2017-11-24T21:50:56.061Z,18.00
2017-11-24T21:53:22.779Z,18.03
2017-11-24T21:55:49.525Z,18.40
2017-11-24T21:58:16.249Z,19.30
2017-11-24T22:00:42.987Z,17.43
2017-11-24T22:03:09.728Z,14.70
2017-11-24T22:05:36.434Z,17.40
2017-11-24T22:08:03.171Z,18.30
2017-11-24T22:10:29.885Z,18.80
2017-11-24T22:12:56.603Z,16.70
2017-11-24T22:15:23.330Z,18.07
2017-11-24T22:17:50.065Z,17.23
2017-11-24T22:20:16.792Z,16.80
2017-11-24T22:22:43.656Z,17.20
2017-11-24T22:25:10.425Z,18.00
2017-11-24T22:27:37.167Z,17.30
2017-11-24T22:30:03.913Z,17.37
2017-11-24T22:32:30.686Z,16.90
2017-11-24T22:34:57.436Z,15.00
2017-11-24T22:37:24.511Z,15.27
2017-11-24T22:39:51.286Z,16.33
2017-11-24T22:42:18.006Z,16.10
2017-11-24T22:44:45.570Z,15.80
2017-11-24T22:47:12.326Z,15.33
2017-11-24T22:49:39.129Z,17.17
2017-11-24T22:52:05.848Z,16.60
2017-11-24T22:54:32.579Z,16.40
2017-11-24T22:56:59.335Z,15.43
2017-11-24T22:59:26.071Z,21.17
2017-11-24T23:01:52.795Z,18.37
2017-11-24T23:04:19.557Z,15.50
2017-11-24T23:06:46.336Z,12.77
2017-11-24T23:09:13.055Z,14.47
2017-11-24T23:11:39.823Z,14.37
2017-11-24T23:14:06.551Z,13.70
2017-11-24T23:16:33.275Z,14.40
2017-11-24T23:18:59.999Z,13.60
2017-11-24T23:21:26.772Z,14.20
2017-11-24T23:23:53.507Z,15.80
2017-11-24T23:26:20.228Z,14.37
2017-11-24T23:28:46.955Z,13.10
2017-11-24T23:31:13.668Z,13.23
2017-11-24T23:33:40.398Z,12.53
2017-11-24T23:36:07.132Z,15.50
2017-11-24T23:38:33.840Z,15.07
2017-11-24T23:41:00.565Z,15.17
2017-11-24T23:43:27.291Z,15.30
2017-11-24T23:45:54.027Z,15.47
2017-11-24T23:48:20.750Z,14.60
2017-11-24T23:50:47.476Z,15.17
2017-11-24T23:53:14.191Z,14.87
2017-11-24T23:55:40.903Z,16.27
2017-11-24T23:58:07.630Z,16.20
